This is the latest recevied weather packets stored in our database for station/object NW0020. If no packets are shown the sender has not sent any weather packets the latest 10 day(s).
| Time | Temp. | Humidity | Pressure | Rain* | Wind** | Luminosity | Snow |
|---|---|---|---|---|---|---|---|
| 1787552991 | 33.33° C | 64% | - | 0 mm | - | 1352 W/m² | - |
| 1787552391 | 32.78° C | 64% | - | 0 mm | - | 1396 W/m² | - |
| 1787551791 | 33.33° C | 63% | - | 0 mm | - | 1467 W/m² | - |
| 1787551191 | 33.33° C | 61% | - | 0 mm | - | 1530 W/m² | - |
| 1787550591 | 33.33° C | 60% | - | 0 mm | - | 1515 W/m² | - |
| 1787549991 | 32.78° C | 62% | - | 0 mm | - | 1508 W/m² | - |
| 1787549391 | 32.78° C | 62% | - | 0 mm | - | 1453 W/m² | - |
| 1787548791 | 32.78° C | 63% | - | 0 mm | - | 1422 W/m² | - |
| 1787548191 | 32.78° C | 63% | - | 0 mm | - | 1526 W/m² | - |
| 1787547591 | 32.78° C | 64% | - | 0 mm | - | 1488 W/m² | - |
| 1787546991 | 32.78° C | 65% | - | 0 mm | - | 1581 W/m² | - |
| 1787546391 | 32.78° C | 66% | - | 0 mm | - | 1586 W/m² | - |
| 1787545791 | 32.22° C | 67% | - | 0 mm | - | 1703 W/m² | - |
| 1787545191 | 32.22° C | 68% | - | 0 mm | - | 1697 W/m² | - |
| 1787544591 | 31.67° C | 69% | - | 0 mm | - | 1711 W/m² | - |
| 1787543990 | 31.11° C | 69% | - | 0 mm | - | 1667 W/m² | - |
| 1787543390 | 31.11° C | 69% | - | 0 mm | - | 1676 W/m² | - |
| 1787542790 | 31.11° C | 69% | - | 0 mm | - | 1694 W/m² | - |
| 1787542190 | 31.11° C | 71% | - | 0 mm | - | 1660 W/m² | - |
| 1787541590 | 30.56° C | 74% | - | 0 mm | - | 1674 W/m² | - |
| 1787540990 | 30° C | 77% | - | 0 mm | - | 1657 W/m² | - |
| 1787540390 | 28.89° C | 80% | - | 0 mm | - | 1477 W/m² | - |
| 1787539790 | 28.89° C | 83% | - | 0 mm | - | 1282 W/m² | - |
| 1787539190 | 28.33° C | 86% | - | 0 mm | - | 1265 W/m² | - |
| 1787538590 | 27.78° C | 90% | - | 0 mm | - | 1206 W/m² | - |
* Rain latest hour (hover to see other rain measurements)
** Current wind speed in m/s (hover to see current wind gust speed)